createdAt,value
2022-11-02T00:00:40.960Z,11.23
2022-11-02T00:03:07.820Z,11.33
2022-11-02T00:05:34.501Z,11.34
2022-11-02T00:08:00.841Z,11.36
2022-11-02T00:10:27.307Z,11.31
2022-11-02T00:12:53.613Z,11.21
2022-11-02T00:15:19.957Z,11.19
2022-11-02T00:17:48.745Z,11.11
2022-11-02T00:20:18.179Z,11.11
2022-11-02T00:22:46.717Z,11.02
2022-11-02T00:25:16.321Z,10.94
2022-11-02T00:27:43.264Z,10.98
2022-11-02T00:30:10.568Z,10.99
2022-11-02T00:32:36.894Z,10.96
2022-11-02T00:35:03.315Z,11.00
2022-11-02T00:37:29.731Z,11.11
2022-11-02T00:39:56.089Z,11.08
2022-11-02T00:42:22.434Z,11.00
2022-11-02T00:44:48.736Z,11.15
2022-11-02T00:47:15.064Z,11.15
2022-11-02T00:49:41.692Z,11.21
2022-11-02T00:52:08.056Z,11.25
2022-11-02T00:54:34.368Z,11.40
2022-11-02T00:59:28.106Z,11.44
2022-11-02T01:01:54.547Z,11.53
2022-11-02T01:04:21.202Z,11.47
2022-11-02T01:06:47.593Z,11.45
2022-11-02T01:09:15.158Z,11.49
2022-11-02T01:11:41.749Z,11.54
2022-11-02T01:14:09.022Z,11.51
2022-11-02T01:16:35.596Z,11.39
2022-11-02T01:19:01.975Z,11.47
2022-11-02T01:21:28.321Z,11.49
2022-11-02T01:23:55.505Z,11.52
2022-11-02T01:26:21.812Z,11.50
2022-11-02T01:28:48.135Z,11.56
2022-11-02T01:31:15.652Z,11.67
2022-11-02T01:33:45.845Z,11.66
2022-11-02T01:36:14.947Z,11.55
2022-11-02T01:38:41.400Z,11.53
2022-11-02T01:41:08.092Z,11.60
2022-11-02T01:43:35.911Z,11.53
2022-11-02T01:46:12.433Z,11.62
2022-11-02T01:48:47.729Z,11.61
2022-11-02T01:51:20.942Z,11.59
2022-11-02T01:53:50.274Z,11.45
2022-11-02T01:56:20.505Z,11.46
2022-11-02T01:58:51.893Z,11.45
2022-11-02T02:01:18.252Z,11.25
2022-11-02T02:03:45.877Z,11.14
2022-11-02T02:06:15.051Z,11.24
2022-11-02T02:08:48.452Z,11.23
2022-11-02T02:11:43.966Z,11.09
2022-11-02T02:14:14.805Z,11.11
2022-11-02T02:17:18.636Z,11.15
2022-11-02T02:19:58.278Z,11.19
2022-11-02T02:22:45.561Z,11.18
2022-11-02T02:25:17.993Z,11.19
2022-11-02T02:27:56.159Z,11.22
2022-11-02T02:30:22.760Z,11.23
2022-11-02T02:32:55.836Z,11.18
2022-11-02T02:35:35.446Z,11.16
2022-11-02T02:38:05.157Z,11.12
2022-11-02T02:40:37.168Z,11.03
2022-11-02T02:43:25.956Z,11.19
2022-11-02T02:45:58.481Z,11.19
2022-11-02T02:48:26.753Z,11.08
2022-11-02T02:51:02.315Z,10.99
2022-11-02T02:53:34.083Z,10.98
2022-11-02T02:56:02.146Z,10.96
2022-11-02T02:58:39.516Z,10.88
2022-11-02T03:01:07.964Z,10.90
2022-11-02T03:03:35.141Z,10.77
2022-11-02T03:06:17.731Z,10.93
2022-11-02T03:08:51.952Z,10.83
2022-11-02T03:11:20.513Z,10.69
2022-11-02T03:14:00.441Z,10.71
2022-11-02T03:16:51.157Z,10.65
2022-11-02T03:19:23.296Z,10.68
2022-11-02T03:22:02.379Z,10.73
2022-11-02T03:24:46.188Z,10.82
2022-11-02T03:27:22.329Z,10.70
2022-11-02T03:30:00.435Z,10.66
2022-11-02T03:32:31.392Z,10.82
2022-11-02T03:35:02.727Z,10.78
2022-11-02T03:37:37.821Z,10.79
2022-11-02T03:40:16.788Z,10.92
2022-11-02T03:42:44.082Z,10.83
2022-11-02T03:45:14.797Z,10.81
2022-11-02T03:47:45.973Z,10.71
2022-11-02T03:50:15.058Z,10.78
2022-11-02T03:52:45.107Z,10.69
2022-11-02T03:55:28.387Z,10.77
2022-11-02T03:57:54.901Z,10.74
2022-11-02T04:00:24.233Z,10.67
2022-11-02T04:02:55.867Z,10.71
2022-11-02T04:05:36.105Z,10.78
2022-11-02T04:08:03.633Z,10.77
2022-11-02T04:10:30.321Z,10.75
2022-11-02T04:12:56.633Z,10.80
2022-11-02T04:15:22.924Z,10.75
2022-11-02T04:17:49.260Z,10.69
2022-11-02T04:20:15.753Z,10.73
2022-11-02T04:22:42.074Z,10.76
2022-11-02T04:25:13.864Z,10.66
2022-11-02T04:27:40.282Z,10.68
2022-11-02T04:30:07.297Z,10.75
2022-11-02T04:32:41.661Z,10.78
2022-11-02T04:35:08.645Z,10.80
2022-11-02T04:37:42.105Z,10.77
2022-11-02T04:40:08.915Z,10.63
2022-11-02T04:42:35.217Z,10.69
2022-11-02T04:45:01.540Z,10.80
2022-11-02T04:47:27.830Z,10.81
2022-11-02T04:49:54.140Z,10.80
2022-11-02T04:52:20.486Z,10.85
2022-11-02T04:54:46.799Z,10.85
2022-11-02T04:57:13.109Z,10.90
2022-11-02T04:59:39.419Z,10.98
2022-11-02T05:02:05.891Z,10.92
2022-11-02T05:04:32.308Z,10.97
2022-11-02T05:07:01.390Z,11.03
2022-11-02T05:09:28.226Z,10.96
2022-11-02T05:11:54.520Z,10.90
2022-11-02T05:14:20.829Z,11.02
2022-11-02T05:16:47.150Z,11.01
2022-11-02T05:19:13.469Z,11.02
2022-11-02T05:21:39.806Z,10.93
2022-11-02T05:24:06.716Z,10.88
2022-11-02T05:26:33.109Z,10.89
2022-11-02T05:28:59.441Z,10.86
2022-11-02T05:31:25.748Z,10.92
2022-11-02T05:33:52.071Z,10.90
2022-11-02T05:36:18.369Z,10.89
2022-11-02T05:38:44.701Z,10.96
2022-11-02T05:41:11.284Z,11.06
2022-11-02T05:43:37.799Z,11.13
2022-11-02T05:46:04.918Z,11.09
2022-11-02T05:48:32.543Z,11.09
2022-11-02T05:51:00.875Z,11.25
2022-11-02T05:53:28.706Z,11.23
2022-11-02T05:55:59.276Z,11.25
2022-11-02T05:58:26.514Z,11.40
2022-11-02T06:00:53.340Z,11.43
2022-11-02T06:03:20.440Z,11.52
2022-11-02T06:05:46.846Z,11.60
2022-11-02T06:08:13.204Z,11.66
2022-11-02T06:10:39.525Z,11.51
2022-11-02T06:13:05.967Z,11.55
2022-11-02T06:15:32.468Z,11.59
2022-11-02T06:17:58.815Z,11.49
2022-11-02T06:20:25.164Z,11.49
2022-11-02T06:22:51.482Z,11.50
2022-11-02T06:25:17.908Z,11.40
2022-11-02T06:27:50.888Z,11.39
2022-11-02T06:30:17.269Z,11.46
2022-11-02T06:32:51.519Z,11.42
2022-11-02T06:35:19.729Z,11.32
2022-11-02T06:37:46.760Z,11.35
2022-11-02T06:40:14.552Z,11.37
2022-11-02T06:42:45.164Z,11.43
2022-11-02T06:47:56.803Z,11.43
2022-11-02T06:50:23.358Z,11.44
2022-11-02T06:52:49.677Z,11.53
2022-11-02T06:55:16.782Z,11.68
2022-11-02T06:57:43.682Z,11.67
2022-11-02T07:00:15.423Z,11.72
2022-11-02T07:02:44.969Z,11.76
2022-11-02T07:05:11.947Z,11.78
2022-11-02T07:07:38.433Z,11.87
2022-11-02T07:10:05.390Z,12.00
2022-11-02T07:12:32.744Z,12.07
2022-11-02T07:14:59.072Z,12.05
2022-11-02T07:17:31.035Z,12.07
2022-11-02T07:19:58.426Z,12.07
2022-11-02T07:22:24.738Z,12.13
2022-11-02T07:24:51.024Z,12.10
2022-11-02T07:27:17.347Z,12.10
2022-11-02T07:29:43.633Z,12.14
2022-11-02T07:32:09.969Z,12.23
2022-11-02T07:34:36.310Z,12.18
2022-11-02T07:37:02.633Z,12.14
2022-11-02T07:39:28.925Z,12.25
2022-11-02T07:41:55.297Z,12.29
2022-11-02T07:44:21.682Z,12.23
2022-11-02T07:46:47.997Z,12.15
2022-11-02T07:49:20.222Z,12.16
2022-11-02T07:51:47.729Z,12.14
2022-11-02T07:54:14.073Z,12.03
2022-11-02T07:56:40.492Z,12.09
2022-11-02T07:59:06.828Z,12.12
2022-11-02T08:01:33.165Z,12.17
2022-11-02T08:03:59.513Z,12.28
2022-11-02T08:06:25.921Z,12.36
2022-11-02T08:08:52.212Z,12.39
2022-11-02T08:11:18.505Z,12.47
2022-11-02T08:13:44.837Z,12.68
2022-11-02T08:16:11.197Z,12.82
2022-11-02T08:18:37.496Z,12.76
2022-11-02T08:21:03.982Z,12.71
2022-11-02T08:23:30.291Z,12.71
2022-11-02T08:25:58.991Z,12.85
2022-11-02T08:28:28.486Z,12.77
2022-11-02T08:30:54.788Z,12.70
2022-11-02T08:33:21.478Z,12.82
2022-11-02T08:35:48.505Z,12.83
2022-11-02T08:38:15.036Z,13.00
2022-11-02T08:40:41.950Z,12.94
2022-11-02T08:43:13.518Z,12.99
2022-11-02T08:46:13.235Z,12.96
2022-11-02T08:48:28.707Z,12.82
2022-11-02T08:50:55.097Z,12.84
2022-11-02T08:53:21.741Z,12.71
2022-11-02T08:55:48.080Z,12.83
2022-11-02T08:58:14.432Z,12.90
2022-11-02T09:00:40.739Z,12.95
2022-11-02T09:03:09.117Z,12.88
2022-11-02T09:05:37.720Z,12.99
2022-11-02T09:08:11.213Z,13.01
2022-11-02T09:10:37.866Z,13.05
2022-11-02T09:13:07.179Z,13.12
2022-11-02T09:15:36.189Z,13.10
2022-11-02T09:18:03.582Z,13.17
2022-11-02T09:20:30.519Z,13.07
2022-11-02T09:22:56.867Z,13.14
2022-11-02T09:25:23.533Z,13.28
2022-11-02T09:27:57.483Z,13.11
2022-11-02T09:30:24.963Z,13.28
2022-11-02T09:32:59.503Z,13.37
2022-11-02T09:35:28.315Z,13.29
2022-11-02T09:37:54.749Z,13.46
2022-11-02T09:40:23.665Z,13.41
2022-11-02T09:43:05.461Z,13.16
2022-11-02T09:45:36.681Z,13.44
2022-11-02T09:48:24.914Z,13.54
2022-11-02T09:51:28.396Z,13.61
2022-11-02T09:54:22.514Z,13.55
2022-11-02T09:56:51.332Z,13.95
2022-11-02T09:59:24.397Z,14.06
2022-11-02T10:02:24.490Z,13.93
2022-11-02T10:05:24.677Z,13.99
2022-11-02T10:07:56.860Z,13.96
2022-11-02T10:10:23.127Z,13.99
2022-11-02T10:13:28.071Z,13.73
2022-11-02T10:16:02.925Z,13.67
2022-11-02T10:18:29.870Z,13.49
2022-11-02T10:20:59.298Z,13.59
2022-11-02T10:23:47.470Z,13.45
2022-11-02T10:26:19.447Z,13.55
2022-11-02T10:28:49.163Z,13.55
2022-11-02T10:31:33.599Z,13.58
2022-11-02T10:34:18.016Z,13.51
2022-11-02T10:36:54.593Z,13.70
2022-11-02T10:39:42.257Z,14.27
2022-11-02T10:42:39.618Z,14.59
2022-11-02T10:45:20.412Z,14.88
2022-11-02T10:48:03.162Z,14.94
2022-11-02T10:50:29.730Z,14.95
2022-11-02T10:53:20.435Z,14.86
2022-11-02T10:55:54.931Z,14.60
2022-11-02T10:58:23.022Z,14.52
2022-11-02T11:00:49.512Z,14.44
2022-11-02T11:03:17.753Z,14.64
2022-11-02T11:05:55.310Z,14.97
2022-11-02T11:08:29.090Z,15.40
2022-11-02T11:10:55.476Z,15.54
2022-11-02T11:16:14.399Z,15.18
2022-11-02T11:21:40.446Z,15.20
2022-11-02T11:24:20.588Z,15.21
2022-11-02T11:27:03.646Z,14.95
2022-11-02T11:29:32.721Z,14.95
2022-11-02T11:32:01.166Z,14.89
2022-11-02T11:34:30.234Z,14.97
2022-11-02T11:37:26.070Z,15.33
2022-11-02T11:39:57.459Z,15.25
2022-11-02T11:42:27.115Z,15.18
2022-11-02T11:45:02.866Z,14.99
2022-11-02T11:47:34.180Z,15.00
2022-11-02T11:50:13.522Z,15.27
2022-11-02T11:52:44.054Z,15.09
2022-11-02T11:55:25.148Z,15.06
2022-11-02T11:58:33.076Z,14.86
2022-11-02T12:01:09.325Z,14.73
2022-11-02T12:04:00.276Z,14.66
2022-11-02T12:06:35.025Z,14.74
2022-11-02T12:09:40.930Z,14.93
2022-11-02T12:12:13.983Z,15.22
2022-11-02T12:15:06.970Z,15.07
2022-11-02T12:17:45.700Z,14.88
2022-11-02T12:20:37.866Z,14.71
2022-11-02T12:23:13.358Z,14.41
2022-11-02T12:26:04.831Z,14.20
2022-11-02T12:29:01.184Z,14.18
2022-11-02T12:31:38.392Z,14.11
2022-11-02T12:34:57.636Z,14.19
2022-11-02T12:37:48.520Z,14.20
2022-11-02T12:40:20.950Z,14.38
2022-11-02T12:43:09.134Z,14.33
2022-11-02T12:45:49.901Z,14.26
2022-11-02T12:48:29.271Z,14.07
2022-11-02T12:51:08.094Z,14.00
2022-11-02T12:53:49.253Z,13.86
2022-11-02T12:56:23.097Z,13.82
2022-11-02T12:58:49.719Z,13.81
2022-11-02T13:01:20.558Z,14.11
2022-11-02T13:03:53.189Z,14.32
2022-11-02T13:06:24.772Z,14.51
2022-11-02T13:09:00.461Z,14.61
2022-11-02T13:11:36.746Z,14.75
2022-11-02T13:14:14.339Z,14.71
2022-11-02T13:16:54.724Z,14.75
2022-11-02T13:19:49.180Z,14.77
2022-11-02T13:22:18.224Z,14.78
2022-11-02T13:24:50.368Z,14.89
2022-11-02T13:27:38.825Z,14.67
2022-11-02T13:30:14.897Z,14.51
2022-11-02T13:33:16.878Z,14.30
2022-11-02T13:35:43.255Z,14.37
2022-11-02T13:38:12.689Z,14.26
2022-11-02T13:40:49.538Z,14.38
2022-11-02T13:43:24.997Z,14.46
2022-11-02T13:46:06.653Z,14.60
2022-11-02T13:48:51.982Z,14.72
2022-11-02T13:51:18.247Z,14.66
2022-11-02T13:53:57.847Z,14.60
2022-11-02T13:56:27.438Z,14.41
2022-11-02T13:58:57.964Z,14.46
2022-11-02T14:01:26.252Z,14.41
2022-11-02T14:04:02.560Z,14.33
2022-11-02T14:06:31.730Z,14.29
2022-11-02T14:09:00.975Z,14.19
2022-11-02T14:11:36.639Z,14.06
2022-11-02T14:14:02.943Z,13.95
2022-11-02T14:16:48.338Z,13.91
2022-11-02T14:19:20.391Z,13.93
2022-11-02T14:21:59.105Z,13.72
2022-11-02T14:24:34.633Z,13.73
2022-11-02T14:27:22.346Z,13.65
2022-11-02T14:29:53.940Z,13.63
2022-11-02T14:32:20.212Z,13.60
2022-11-02T14:35:13.406Z,13.40
2022-11-02T14:38:16.505Z,13.26
2022-11-02T14:40:48.950Z,13.27
2022-11-02T14:43:43.183Z,13.18
2022-11-02T14:46:31.229Z,13.21
2022-11-02T14:48:59.812Z,13.13
2022-11-02T14:51:29.938Z,13.07
2022-11-02T14:54:03.101Z,13.10
2022-11-02T14:57:04.618Z,12.94
2022-11-02T14:59:38.427Z,12.87
2022-11-02T15:02:13.123Z,12.80
2022-11-02T15:04:48.605Z,12.68
2022-11-02T15:07:22.445Z,12.74
2022-11-02T15:09:59.601Z,12.77
2022-11-02T15:12:38.376Z,12.74
2022-11-02T15:15:04.629Z,12.63
2022-11-02T15:17:30.891Z,12.45
2022-11-02T15:20:15.378Z,12.27
2022-11-02T15:22:45.529Z,12.25
2022-11-02T15:25:24.038Z,12.40
2022-11-02T15:27:52.345Z,12.25
2022-11-02T15:30:28.013Z,12.11
2022-11-02T15:33:05.567Z,11.99
2022-11-02T15:35:38.033Z,11.76
2022-11-02T15:38:28.079Z,11.66
2022-11-02T15:41:07.788Z,11.50
2022-11-02T15:43:47.870Z,11.45
2022-11-02T15:46:52.308Z,11.43
2022-11-02T15:49:30.550Z,11.44
2022-11-02T15:52:12.208Z,11.36
2022-11-02T15:55:03.462Z,11.24
2022-11-02T15:57:51.593Z,11.05
2022-11-02T16:00:22.149Z,11.03
2022-11-02T16:02:52.669Z,10.93
2022-11-02T16:05:22.875Z,10.91
2022-11-02T16:08:10.452Z,10.73
2022-11-02T16:10:37.515Z,10.66
2022-11-02T16:13:10.013Z,10.55
2022-11-02T16:15:36.681Z,10.49
2022-11-02T16:18:03.379Z,10.40
2022-11-02T16:20:34.511Z,10.33
2022-11-02T16:23:03.339Z,10.21
2022-11-02T16:25:36.862Z,10.09
2022-11-02T16:28:25.888Z,10.00
2022-11-02T16:31:10.073Z,9.88
2022-11-02T16:33:44.078Z,9.81
2022-11-02T16:36:15.358Z,9.71
2022-11-02T16:38:52.296Z,9.61
2022-11-02T16:41:19.025Z,9.55
2022-11-02T16:43:46.209Z,9.56
2022-11-02T16:46:15.518Z,9.44
2022-11-02T16:49:01.428Z,9.33
2022-11-02T16:51:27.780Z,9.31
2022-11-02T16:53:54.165Z,9.30
2022-11-02T16:56:27.245Z,9.26
2022-11-02T16:59:02.733Z,9.11
2022-11-02T17:01:38.552Z,9.08
2022-11-02T17:04:23.626Z,9.04
2022-11-02T17:06:53.874Z,9.10
2022-11-02T17:09:31.142Z,9.11
2022-11-02T17:12:15.843Z,8.99
2022-11-02T17:14:44.570Z,9.05
2022-11-02T17:17:40.186Z,8.96
2022-11-02T17:20:12.378Z,8.84
2022-11-02T17:22:47.973Z,8.90
2022-11-02T17:25:30.422Z,8.82
2022-11-02T17:28:02.908Z,8.80
2022-11-02T17:30:29.414Z,8.75
2022-11-02T17:32:57.182Z,8.67
2022-11-02T17:35:27.256Z,8.59
2022-11-02T17:37:54.000Z,8.55
2022-11-02T17:40:20.404Z,8.47
2022-11-02T17:42:46.742Z,8.49
2022-11-02T17:45:24.555Z,8.43
2022-11-02T17:47:51.759Z,8.37
2022-11-02T17:50:18.832Z,8.43
2022-11-02T17:52:45.570Z,8.39
2022-11-02T17:55:17.844Z,8.34
2022-11-02T17:57:44.938Z,8.32
2022-11-02T18:00:11.854Z,8.24
2022-11-02T18:02:40.376Z,8.15
2022-11-02T18:05:29.931Z,8.08
2022-11-02T18:07:57.763Z,8.07
2022-11-02T18:10:37.110Z,8.00
2022-11-02T18:13:04.403Z,7.96
2022-11-02T18:15:33.084Z,7.95
2022-11-02T18:17:59.675Z,7.86
2022-11-02T18:20:27.849Z,7.83
2022-11-02T18:22:55.499Z,7.87
2022-11-02T18:27:53.252Z,7.84
2022-11-02T18:30:19.677Z,7.76
2022-11-02T18:32:46.833Z,7.81
2022-11-02T18:35:17.185Z,7.77
2022-11-02T18:37:44.407Z,7.72
2022-11-02T18:40:13.336Z,7.65
2022-11-02T18:42:42.432Z,7.58
2022-11-02T18:45:10.591Z,7.59
2022-11-02T18:47:37.309Z,7.64
2022-11-02T18:50:05.876Z,7.73
2022-11-02T18:52:32.842Z,7.74
2022-11-02T18:54:59.790Z,7.75
2022-11-02T18:57:28.182Z,7.80
2022-11-02T18:59:54.815Z,7.85
2022-11-02T19:02:21.193Z,7.95
2022-11-02T19:04:47.553Z,7.99
2022-11-02T19:07:16.280Z,8.10
2022-11-02T19:09:42.965Z,8.17
2022-11-02T19:12:13.397Z,8.20
2022-11-02T19:14:44.780Z,8.26
2022-11-02T19:17:12.909Z,8.26
2022-11-02T19:19:39.645Z,8.42
2022-11-02T19:22:06.492Z,8.54
2022-11-02T19:24:33.194Z,8.62
2022-11-02T19:26:59.620Z,8.68
2022-11-02T19:29:25.922Z,8.79
2022-11-02T19:31:52.248Z,8.85
2022-11-02T19:34:18.552Z,8.96
2022-11-02T19:36:44.870Z,8.96
2022-11-02T19:39:11.311Z,9.01
2022-11-02T19:41:38.528Z,9.02
2022-11-02T19:44:05.434Z,9.05
2022-11-02T19:46:31.891Z,9.13
2022-11-02T19:48:58.603Z,9.23
2022-11-02T19:51:27.247Z,9.16
2022-11-02T19:53:56.139Z,8.98
2022-11-02T19:56:22.824Z,9.02
2022-11-02T19:58:51.177Z,9.04
2022-11-02T20:01:24.341Z,9.00
2022-11-02T20:03:51.749Z,9.05
2022-11-02T20:06:21.159Z,9.01
2022-11-02T20:08:54.486Z,9.12
2022-11-02T20:11:21.589Z,8.98
2022-11-02T20:13:48.773Z,8.98
2022-11-02T20:16:17.862Z,9.06
2022-11-02T20:18:45.750Z,9.12
2022-11-02T20:21:15.026Z,9.19
2022-11-02T20:23:42.562Z,9.17
2022-11-02T20:26:14.622Z,9.11
2022-11-02T20:28:43.443Z,9.12
2022-11-02T20:31:13.613Z,9.13
2022-11-02T20:33:40.463Z,8.93
2022-11-02T20:36:07.968Z,9.03
2022-11-02T20:38:34.770Z,8.97
2022-11-02T20:41:13.256Z,8.93
2022-11-02T20:43:41.878Z,9.03
2022-11-02T20:48:56.781Z,8.97
2022-11-02T20:51:23.974Z,9.01
2022-11-02T20:53:50.582Z,9.01
2022-11-02T20:56:17.518Z,9.01
2022-11-02T20:58:48.906Z,9.05
2022-11-02T21:01:17.718Z,8.95
2022-11-02T21:03:44.489Z,8.90
2022-11-02T21:06:10.922Z,8.89
2022-11-02T21:08:37.380Z,8.94
2022-11-02T21:11:04.783Z,8.86
2022-11-02T21:13:31.108Z,8.81
2022-11-02T21:16:03.163Z,8.76
2022-11-02T21:18:32.284Z,8.67
2022-11-02T21:21:24.641Z,8.52
2022-11-02T21:23:50.954Z,8.65
2022-11-02T21:26:17.583Z,8.64
2022-11-02T21:28:44.106Z,8.60
2022-11-02T21:31:12.998Z,8.62
2022-11-02T21:33:39.296Z,8.68
2022-11-02T21:36:05.938Z,8.68
2022-11-02T21:38:32.976Z,8.79
2022-11-02T21:41:01.005Z,8.84
2022-11-02T21:43:28.362Z,8.86
2022-11-02T21:46:00.679Z,8.99
2022-11-02T21:48:32.444Z,9.07
2022-11-02T21:51:12.637Z,9.08
2022-11-02T21:53:42.577Z,9.07
2022-11-02T21:56:16.375Z,9.07
2022-11-02T21:58:45.906Z,9.06
2022-11-02T22:01:21.637Z,9.10
2022-11-02T22:03:48.680Z,9.02
2022-11-02T22:06:15.306Z,8.96
2022-11-02T22:08:41.971Z,9.02
2022-11-02T22:11:14.012Z,9.22
2022-11-02T22:13:41.623Z,9.31
2022-11-02T22:16:16.715Z,9.26
2022-11-02T22:18:44.486Z,9.17
2022-11-02T22:21:12.526Z,9.32
2022-11-02T22:23:39.701Z,9.28
2022-11-02T22:26:08.410Z,9.41
2022-11-02T22:28:38.305Z,9.53
2022-11-02T22:31:25.854Z,9.71
2022-11-02T22:33:54.571Z,9.69
2022-11-02T22:36:23.348Z,9.55
2022-11-02T22:38:51.167Z,9.55
2022-11-02T22:41:24.635Z,9.58
2022-11-02T22:43:53.637Z,9.51
2022-11-02T22:46:23.420Z,9.47
2022-11-02T22:48:54.837Z,9.56
2022-11-02T22:51:22.904Z,9.69
2022-11-02T22:53:49.819Z,9.64
2022-11-02T22:56:18.120Z,9.60
2022-11-02T22:58:45.925Z,9.63
2022-11-02T23:01:15.351Z,9.59
2022-11-02T23:03:42.830Z,9.36
2022-11-02T23:06:09.994Z,9.19
2022-11-02T23:08:42.138Z,9.32
2022-11-02T23:11:10.298Z,9.33
2022-11-02T23:13:36.620Z,9.28
2022-11-02T23:16:05.238Z,9.05
2022-11-02T23:18:31.567Z,9.03
2022-11-02T23:20:57.869Z,8.93
2022-11-02T23:23:24.174Z,8.96
2022-11-02T23:25:57.401Z,8.99
2022-11-02T23:30:54.860Z,8.71
2022-11-02T23:33:23.024Z,8.62
2022-11-02T23:35:49.725Z,8.81
2022-11-02T23:38:16.057Z,8.68
2022-11-02T23:40:42.394Z,8.62
2022-11-02T23:43:08.766Z,8.68
2022-11-02T23:45:35.469Z,8.73
2022-11-02T23:48:08.744Z,8.70
2022-11-02T23:50:35.814Z,8.67
2022-11-02T23:53:03.450Z,8.51
2022-11-02T23:55:30.014Z,8.65
2022-11-02T23:57:56.336Z,8.54
